Aérodrome :
LOGIN :

S'inscrire | Disclaimer

   EN    FR    IT 

 










Légende :    VFR   VFR Marginal   IFR   IFR Intensif   IFR Très Intensif
Visi : 
Plafond : 
>= 8 km
>= 3000ft
5 à 8 km
1000 à 3000 ft
1500m à 5 km
500 à 1000 ft
800 à 1500m
200 à 500 ft
< 800m
< 200 ft
Symboles :   Orages  Brouillard  Fortes neiges  Fortes précipitations  Vent > 20 kt
SIGMETs :   Divers  Orages  Givrage  Turbulence  Onde Orograph.  Cendres Volcan.






- Altitude de l'aérodrome : 686 ft


LYKV - Ladevci

DERNIER METAR :
  • 031400Z 33006KT 290V030 9999 SCT040 31/19 Q1010 NOSIG

METARs EXPIRÉS :
  • 031330Z 01005KT 320V050 9999 SCT040 31/20 Q1010 NOSIG
  • 031300Z 01007KT 270V040 9999 SCT040 31/20 Q1010 NOSIG
  • 031230Z VRB05KT 9999 SCT030 32/19 Q1010 NOSIG
  • 031200Z VRB02KT 9999 SCT030 31/18 Q1010 NOSIG
  • 031130Z VRB01KT 9999 SCT030 31/18 Q1010 NOSIG

TAF TAF LYKV
Valide du 03 à 12h jusqu'au 04 à 12h UTC


031100Z 0312/0412 32006KT 9999 SCT040 TX32/0314Z TN18/0403Z
TEMPO 0312/0320 VRB15G25KT 5000 TSRA SCT027CB SCT040
TEMPO 0402/0406 1500 BR



MET'MAP, la Météo Aéronautique d'un coup d'oeil ! - Copyright ORBIFLY Décembre 2007 - Disclaimer

ORBIFLY MET'MAP TEAM :

Programmation & Développement : Alexandra Zaïnal
Sur une idée originale de : Baudouin d'Aumeries
Assistance à la programmation : Marc-Olivier Méhu
Soutien technique & logistique : Manuel Goepfert

Contact : metmap@orbifly.com




SOURCES & CREDITS :

   NOAA